sensor_id;sensor_type;location;lat;lon;timestamp;P1;durP1;ratioP1;P2;durP2;ratioP2
6614;SDS011;3343;42.896;23.912;2023-01-01T00:02:07;21.20;;;9.73;;
6614;SDS011;3343;42.896;23.912;2023-01-01T00:04:34;23.43;;;10.77;;
6614;SDS011;3343;42.896;23.912;2023-01-01T00:07:01;19.17;;;8.90;;
6614;SDS011;3343;42.896;23.912;2023-01-01T00:09:27;11.50;;;5.40;;
6614;SDS011;3343;42.896;23.912;2023-01-01T00:12:13;14.20;;;6.40;;
6614;SDS011;3343;42.896;23.912;2023-01-01T00:14:40;8.60;;;5.07;;
6614;SDS011;3343;42.896;23.912;2023-01-01T00:17:08;10.23;;;4.97;;
6614;SDS011;3343;42.896;23.912;2023-01-01T00:19:35;7.40;;;4.87;;
6614;SDS011;3343;42.896;23.912;2023-01-01T00:22:02;10.20;;;4.90;;
6614;SDS011;3343;42.896;23.912;2023-01-01T00:24:29;9.50;;;5.50;;
6614;SDS011;3343;42.896;23.912;2023-01-01T00:26:56;8.17;;;4.93;;
6614;SDS011;3343;42.896;23.912;2023-01-01T00:29:25;9.00;;;4.73;;
6614;SDS011;3343;42.896;23.912;2023-01-01T00:31:52;10.60;;;4.93;;
6614;SDS011;3343;42.896;23.912;2023-01-01T00:34:19;7.00;;;4.77;;
6614;SDS011;3343;42.896;23.912;2023-01-01T00:36:46;7.13;;;4.10;;
6614;SDS011;3343;42.896;23.912;2023-01-01T00:39:13;20.67;;;10.57;;
6614;SDS011;3343;42.896;23.912;2023-01-01T00:41:40;6.37;;;4.80;;
6614;SDS011;3343;42.896;23.912;2023-01-01T00:44:07;14.40;;;6.00;;
6614;SDS011;3343;42.896;23.912;2023-01-01T00:46:35;10.53;;;6.70;;
6614;SDS011;3343;42.896;23.912;2023-01-01T00:49:02;7.87;;;5.37;;
6614;SDS011;3343;42.896;23.912;2023-01-01T00:51:28;7.67;;;4.83;;
6614;SDS011;3343;42.896;23.912;2023-01-01T00:53:55;7.13;;;4.30;;
6614;SDS011;3343;42.896;23.912;2023-01-01T00:56:22;10.73;;;4.17;;
6614;SDS011;3343;42.896;23.912;2023-01-01T00:58:49;7.77;;;4.13;;
6614;SDS011;3343;42.896;23.912;2023-01-01T01:01:16;7.63;;;3.77;;
6614;SDS011;3343;42.896;23.912;2023-01-01T01:03:44;9.13;;;4.37;;
6614;SDS011;3343;42.896;23.912;2023-01-01T01:06:11;7.40;;;4.17;;
6614;SDS011;3343;42.896;23.912;2023-01-01T01:08:40;6.73;;;4.30;;
6614;SDS011;3343;42.896;23.912;2023-01-01T01:11:10;5.17;;;4.03;;
6614;SDS011;3343;42.896;23.912;2023-01-01T01:13:40;10.80;;;4.03;;
6614;SDS011;3343;42.896;23.912;2023-01-01T01:16:09;6.50;;;4.23;;
6614;SDS011;3343;42.896;23.912;2023-01-01T01:18:36;6.83;;;4.00;;
6614;SDS011;3343;42.896;23.912;2023-01-01T01:21:05;8.73;;;4.90;;
6614;SDS011;3343;42.896;23.912;2023-01-01T01:23:34;52.53;;;19.87;;
6614;SDS011;3343;42.896;23.912;2023-01-01T01:26:08;16.00;;;8.90;;
6614;SDS011;3343;42.896;23.912;2023-01-01T01:28:35;7.47;;;5.17;;
6614;SDS011;3343;42.896;23.912;2023-01-01T01:31:03;8.93;;;4.90;;
6614;SDS011;3343;42.896;23.912;2023-01-01T01:33:30;9.63;;;4.50;;
6614;SDS011;3343;42.896;23.912;2023-01-01T01:35:57;7.57;;;4.10;;
6614;SDS011;3343;42.896;23.912;2023-01-01T01:38:25;6.50;;;3.77;;
6614;SDS011;3343;42.896;23.912;2023-01-01T01:40:52;6.77;;;4.00;;
6614;SDS011;3343;42.896;23.912;2023-01-01T01:43:20;9.70;;;5.43;;
6614;SDS011;3343;42.896;23.912;2023-01-01T01:45:49;8.30;;;5.20;;
6614;SDS011;3343;42.896;23.912;2023-01-01T01:48:19;8.80;;;4.67;;
6614;SDS011;3343;42.896;23.912;2023-01-01T01:50:47;8.47;;;4.73;;
6614;SDS011;3343;42.896;23.912;2023-01-01T01:53:18;13.43;;;8.10;;
6614;SDS011;3343;42.896;23.912;2023-01-01T01:55:51;55.30;;;22.10;;
6614;SDS011;3343;42.896;23.912;2023-01-01T01:58:20;19.60;;;10.37;;
6614;SDS011;3343;42.896;23.912;2023-01-01T02:00:48;13.70;;;8.23;;
6614;SDS011;3343;42.896;23.912;2023-01-01T02:03:15;10.20;;;7.00;;
6614;SDS011;3343;42.896;23.912;2023-01-01T02:05:46;16.17;;;8.57;;
6614;SDS011;3343;42.896;23.912;2023-01-01T02:08:15;16.67;;;9.13;;
6614;SDS011;3343;42.896;23.912;2023-01-01T02:10:43;22.60;;;9.10;;
6614;SDS011;3343;42.896;23.912;2023-01-01T02:13:11;15.60;;;8.53;;
6614;SDS011;3343;42.896;23.912;2023-01-01T02:15:39;18.13;;;8.93;;
6614;SDS011;3343;42.896;23.912;2023-01-01T02:18:14;18.03;;;9.07;;
6614;SDS011;3343;42.896;23.912;2023-01-01T02:20:47;15.40;;;8.00;;
6614;SDS011;3343;42.896;23.912;2023-01-01T02:23:29;17.00;;;8.07;;
6614;SDS011;3343;42.896;23.912;2023-01-01T02:26:21;15.80;;;7.67;;
6614;SDS011;3343;42.896;23.912;2023-01-01T02:29:15;9.57;;;5.27;;
6614;SDS011;3343;42.896;23.912;2023-01-01T02:31:54;14.33;;;7.53;;
6614;SDS011;3343;42.896;23.912;2023-01-01T02:34:26;10.00;;;6.30;;
6614;SDS011;3343;42.896;23.912;2023-01-01T02:36:56;15.47;;;8.13;;
6614;SDS011;3343;42.896;23.912;2023-01-01T02:39:28;14.77;;;7.80;;
6614;SDS011;3343;42.896;23.912;2023-01-01T02:41:58;7.23;;;4.13;;
6614;SDS011;3343;42.896;23.912;2023-01-01T02:44:29;6.83;;;4.03;;
6614;SDS011;3343;42.896;23.912;2023-01-01T02:47:05;7.03;;;3.67;;
6614;SDS011;3343;42.896;23.912;2023-01-01T02:49:33;12.30;;;6.00;;
6614;SDS011;3343;42.896;23.912;2023-01-01T02:52:06;12.90;;;6.23;;
6614;SDS011;3343;42.896;23.912;2023-01-01T02:54:39;6.53;;;4.03;;
6614;SDS011;3343;42.896;23.912;2023-01-01T02:57:15;5.87;;;3.57;;
6614;SDS011;3343;42.896;23.912;2023-01-01T02:59:55;4.30;;;2.90;;
6614;SDS011;3343;42.896;23.912;2023-01-01T03:02:53;3.73;;;2.80;;
6614;SDS011;3343;42.896;23.912;2023-01-01T03:05:36;5.57;;;3.17;;
6614;SDS011;3343;42.896;23.912;2023-01-01T03:08:29;4.90;;;3.77;;
6614;SDS011;3343;42.896;23.912;2023-01-01T03:11:01;5.03;;;3.47;;
6614;SDS011;3343;42.896;23.912;2023-01-01T03:13:32;5.90;;;3.60;;
6614;SDS011;3343;42.896;23.912;2023-01-01T03:16:07;9.13;;;3.83;;
6614;SDS011;3343;42.896;23.912;2023-01-01T03:18:40;6.37;;;4.30;;
6614;SDS011;3343;42.896;23.912;2023-01-01T03:21:13;6.63;;;3.63;;
6614;SDS011;3343;42.896;23.912;2023-01-01T03:23:44;8.83;;;4.20;;
6614;SDS011;3343;42.896;23.912;2023-01-01T03:26:15;5.90;;;3.83;;
6614;SDS011;3343;42.896;23.912;2023-01-01T03:28:45;7.30;;;4.00;;
6614;SDS011;3343;42.896;23.912;2023-01-01T03:31:17;15.60;;;10.43;;
6614;SDS011;3343;42.896;23.912;2023-01-01T03:33:46;12.87;;;6.73;;
6614;SDS011;3343;42.896;23.912;2023-01-01T03:36:18;11.33;;;5.03;;
6614;SDS011;3343;42.896;23.912;2023-01-01T03:38:50;11.60;;;7.50;;
6614;SDS011;3343;42.896;23.912;2023-01-01T03:41:20;15.07;;;6.90;;
6614;SDS011;3343;42.896;23.912;2023-01-01T03:43:52;11.27;;;7.27;;
6614;SDS011;3343;42.896;23.912;2023-01-01T03:46:28;13.43;;;7.33;;
6614;SDS011;3343;42.896;23.912;2023-01-01T03:48:56;13.70;;;7.90;;
6614;SDS011;3343;42.896;23.912;2023-01-01T03:51:26;16.03;;;8.53;;
6614;SDS011;3343;42.896;23.912;2023-01-01T03:54:05;12.27;;;6.67;;
6614;SDS011;3343;42.896;23.912;2023-01-01T03:56:39;11.10;;;5.80;;
6614;SDS011;3343;42.896;23.912;2023-01-01T03:59:12;14.23;;;5.87;;
6614;SDS011;3343;42.896;23.912;2023-01-01T04:01:46;11.87;;;6.33;;
6614;SDS011;3343;42.896;23.912;2023-01-01T04:04:17;10.57;;;5.90;;
6614;SDS011;3343;42.896;23.912;2023-01-01T04:06:44;11.23;;;6.07;;
6614;SDS011;3343;42.896;23.912;2023-01-01T04:09:16;8.00;;;5.20;;
6614;SDS011;3343;42.896;23.912;2023-01-01T04:11:49;10.07;;;5.43;;
6614;SDS011;3343;42.896;23.912;2023-01-01T04:14:30;5.33;;;3.83;;
6614;SDS011;3343;42.896;23.912;2023-01-01T04:17:01;7.30;;;3.80;;
6614;SDS011;3343;42.896;23.912;2023-01-01T04:19:29;5.47;;;3.33;;
6614;SDS011;3343;42.896;23.912;2023-01-01T04:21:56;11.63;;;4.77;;
6614;SDS011;3343;42.896;23.912;2023-01-01T04:24:23;9.37;;;4.87;;
6614;SDS011;3343;42.896;23.912;2023-01-01T04:26:50;9.20;;;5.60;;
6614;SDS011;3343;42.896;23.912;2023-01-01T04:29:17;7.73;;;4.73;;
6614;SDS011;3343;42.896;23.912;2023-01-01T04:31:45;8.30;;;4.73;;
6614;SDS011;3343;42.896;23.912;2023-01-01T04:34:13;11.17;;;4.90;;
6614;SDS011;3343;42.896;23.912;2023-01-01T04:36:41;4.87;;;3.70;;
6614;SDS011;3343;42.896;23.912;2023-01-01T04:39:08;5.63;;;3.60;;
6614;SDS011;3343;42.896;23.912;2023-01-01T04:41:35;6.37;;;4.33;;
6614;SDS011;3343;42.896;23.912;2023-01-01T04:44:02;13.20;;;6.43;;
6614;SDS011;3343;42.896;23.912;2023-01-01T04:46:29;18.07;;;8.17;;
6614;SDS011;3343;42.896;23.912;2023-01-01T04:48:56;6.83;;;4.27;;
6614;SDS011;3343;42.896;23.912;2023-01-01T04:51:24;10.63;;;4.67;;
6614;SDS011;3343;42.896;23.912;2023-01-01T04:53:51;8.30;;;4.37;;
6614;SDS011;3343;42.896;23.912;2023-01-01T04:56:19;13.50;;;7.10;;
6614;SDS011;3343;42.896;23.912;2023-01-01T04:58:47;9.87;;;5.67;;
6614;SDS011;3343;42.896;23.912;2023-01-01T05:01:14;7.87;;;4.80;;
6614;SDS011;3343;42.896;23.912;2023-01-01T05:03:43;11.13;;;4.27;;
6614;SDS011;3343;42.896;23.912;2023-01-01T05:06:10;9.50;;;4.47;;
6614;SDS011;3343;42.896;23.912;2023-01-01T05:08:40;10.30;;;6.13;;
6614;SDS011;3343;42.896;23.912;2023-01-01T05:11:08;8.83;;;5.20;;
6614;SDS011;3343;42.896;23.912;2023-01-01T05:13:38;7.80;;;5.13;;
6614;SDS011;3343;42.896;23.912;2023-01-01T05:16:06;9.33;;;5.60;;
6614;SDS011;3343;42.896;23.912;2023-01-01T05:18:35;11.67;;;5.07;;
6614;SDS011;3343;42.896;23.912;2023-01-01T05:21:03;9.27;;;4.90;;
6614;SDS011;3343;42.896;23.912;2023-01-01T05:23:31;6.93;;;4.47;;
6614;SDS011;3343;42.896;23.912;2023-01-01T05:26:06;10.20;;;5.60;;
6614;SDS011;3343;42.896;23.912;2023-01-01T05:28:34;6.97;;;4.67;;
6614;SDS011;3343;42.896;23.912;2023-01-01T05:31:03;7.30;;;4.73;;
6614;SDS011;3343;42.896;23.912;2023-01-01T05:33:31;6.43;;;3.93;;
6614;SDS011;3343;42.896;23.912;2023-01-01T05:35:58;7.23;;;4.27;;
6614;SDS011;3343;42.896;23.912;2023-01-01T05:38:25;6.13;;;3.77;;
6614;SDS011;3343;42.896;23.912;2023-01-01T05:40:51;6.20;;;4.10;;
6614;SDS011;3343;42.896;23.912;2023-01-01T05:43:20;7.40;;;4.73;;
6614;SDS011;3343;42.896;23.912;2023-01-01T05:45:48;11.07;;;5.20;;
6614;SDS011;3343;42.896;23.912;2023-01-01T05:48:15;5.93;;;4.63;;
6614;SDS011;3343;42.896;23.912;2023-01-01T05:50:42;7.17;;;4.17;;
6614;SDS011;3343;42.896;23.912;2023-01-01T05:53:08;4.70;;;3.40;;
6614;SDS011;3343;42.896;23.912;2023-01-01T05:55:35;9.43;;;5.47;;
6614;SDS011;3343;42.896;23.912;2023-01-01T05:58:02;13.10;;;7.03;;
6614;SDS011;3343;42.896;23.912;2023-01-01T06:00:30;8.07;;;4.30;;
6614;SDS011;3343;42.896;23.912;2023-01-01T06:02:57;6.27;;;3.63;;
6614;SDS011;3343;42.896;23.912;2023-01-01T06:05:24;8.47;;;4.93;;
6614;SDS011;3343;42.896;23.912;2023-01-01T06:07:51;13.27;;;6.93;;
6614;SDS011;3343;42.896;23.912;2023-01-01T06:10:18;10.87;;;5.80;;
6614;SDS011;3343;42.896;23.912;2023-01-01T06:12:44;8.23;;;5.50;;
6614;SDS011;3343;42.896;23.912;2023-01-01T06:15:11;8.10;;;5.20;;
6614;SDS011;3343;42.896;23.912;2023-01-01T06:17:39;7.93;;;4.57;;
6614;SDS011;3343;42.896;23.912;2023-01-01T06:20:08;12.17;;;6.47;;
6614;SDS011;3343;42.896;23.912;2023-01-01T06:22:36;14.60;;;8.07;;
6614;SDS011;3343;42.896;23.912;2023-01-01T06:25:03;9.60;;;5.40;;
6614;SDS011;3343;42.896;23.912;2023-01-01T06:27:30;6.57;;;4.40;;
6614;SDS011;3343;42.896;23.912;2023-01-01T06:29:58;7.37;;;4.03;;
6614;SDS011;3343;42.896;23.912;2023-01-01T06:32:25;8.63;;;4.80;;
6614;SDS011;3343;42.896;23.912;2023-01-01T06:34:53;8.23;;;5.03;;
6614;SDS011;3343;42.896;23.912;2023-01-01T06:37:20;8.77;;;5.10;;
6614;SDS011;3343;42.896;23.912;2023-01-01T06:39:46;7.57;;;4.70;;
6614;SDS011;3343;42.896;23.912;2023-01-01T06:42:14;7.63;;;3.63;;
6614;SDS011;3343;42.896;23.912;2023-01-01T06:44:41;7.10;;;4.80;;
6614;SDS011;3343;42.896;23.912;2023-01-01T06:47:08;7.57;;;3.97;;
6614;SDS011;3343;42.896;23.912;2023-01-01T06:49:35;8.67;;;3.70;;
6614;SDS011;3343;42.896;23.912;2023-01-01T06:52:03;10.20;;;5.33;;
6614;SDS011;3343;42.896;23.912;2023-01-01T06:54:30;7.47;;;5.03;;
6614;SDS011;3343;42.896;23.912;2023-01-01T06:56:57;11.10;;;6.93;;
6614;SDS011;3343;42.896;23.912;2023-01-01T06:59:24;7.60;;;4.97;;
6614;SDS011;3343;42.896;23.912;2023-01-01T07:01:51;6.23;;;3.13;;
6614;SDS011;3343;42.896;23.912;2023-01-01T07:04:18;9.70;;;3.67;;
6614;SDS011;3343;42.896;23.912;2023-01-01T07:06:44;6.50;;;4.03;;
6614;SDS011;3343;42.896;23.912;2023-01-01T07:09:13;7.33;;;4.50;;
6614;SDS011;3343;42.896;23.912;2023-01-01T07:11:39;8.60;;;4.43;;
6614;SDS011;3343;42.896;23.912;2023-01-01T07:14:06;13.40;;;5.47;;
6614;SDS011;3343;42.896;23.912;2023-01-01T07:16:33;9.97;;;5.40;;
6614;SDS011;3343;42.896;23.912;2023-01-01T07:19:00;12.03;;;6.37;;
6614;SDS011;3343;42.896;23.912;2023-01-01T07:21:27;11.30;;;5.93;;
6614;SDS011;3343;42.896;23.912;2023-01-01T07:23:56;10.43;;;6.40;;
6614;SDS011;3343;42.896;23.912;2023-01-01T07:26:26;12.33;;;7.00;;
6614;SDS011;3343;42.896;23.912;2023-01-01T07:28:53;17.50;;;7.17;;
6614;SDS011;3343;42.896;23.912;2023-01-01T07:31:20;16.03;;;6.60;;
6614;SDS011;3343;42.896;23.912;2023-01-01T07:33:47;19.07;;;9.97;;
6614;SDS011;3343;42.896;23.912;2023-01-01T07:36:14;19.33;;;10.20;;
6614;SDS011;3343;42.896;23.912;2023-01-01T07:38:41;21.30;;;10.40;;
6614;SDS011;3343;42.896;23.912;2023-01-01T07:41:08;25.10;;;11.87;;
6614;SDS011;3343;42.896;23.912;2023-01-01T07:43:36;30.87;;;15.07;;
6614;SDS011;3343;42.896;23.912;2023-01-01T07:46:03;33.27;;;16.53;;
6614;SDS011;3343;42.896;23.912;2023-01-01T07:48:30;32.00;;;19.00;;
6614;SDS011;3343;42.896;23.912;2023-01-01T07:50:57;38.80;;;19.60;;
6614;SDS011;3343;42.896;23.912;2023-01-01T07:53:24;35.20;;;19.00;;
6614;SDS011;3343;42.896;23.912;2023-01-01T07:55:51;33.80;;;19.43;;
6614;SDS011;3343;42.896;23.912;2023-01-01T07:58:18;35.90;;;19.67;;
6614;SDS011;3343;42.896;23.912;2023-01-01T08:00:46;32.00;;;18.10;;
6614;SDS011;3343;42.896;23.912;2023-01-01T08:03:13;33.80;;;17.57;;
6614;SDS011;3343;42.896;23.912;2023-01-01T08:05:40;38.53;;;17.17;;
6614;SDS011;3343;42.896;23.912;2023-01-01T08:08:08;40.83;;;21.77;;
6614;SDS011;3343;42.896;23.912;2023-01-01T08:10:35;38.10;;;22.80;;
6614;SDS011;3343;42.896;23.912;2023-01-01T08:13:03;44.70;;;22.50;;
6614;SDS011;3343;42.896;23.912;2023-01-01T08:15:32;41.67;;;21.63;;
6614;SDS011;3343;42.896;23.912;2023-01-01T08:18:01;33.13;;;19.23;;
6614;SDS011;3343;42.896;23.912;2023-01-01T08:20:30;39.33;;;20.40;;
6614;SDS011;3343;42.896;23.912;2023-01-01T08:22:58;36.70;;;20.47;;
6614;SDS011;3343;42.896;23.912;2023-01-01T08:25:25;46.83;;;24.13;;
6614;SDS011;3343;42.896;23.912;2023-01-01T08:27:52;64.13;;;30.33;;
6614;SDS011;3343;42.896;23.912;2023-01-01T08:30:19;42.47;;;23.60;;
6614;SDS011;3343;42.896;23.912;2023-01-01T08:32:46;42.73;;;23.13;;
6614;SDS011;3343;42.896;23.912;2023-01-01T08:35:14;37.03;;;20.53;;
6614;SDS011;3343;42.896;23.912;2023-01-01T08:37:41;38.73;;;22.53;;
6614;SDS011;3343;42.896;23.912;2023-01-01T08:40:09;34.90;;;18.43;;
6614;SDS011;3343;42.896;23.912;2023-01-01T08:42:38;32.40;;;17.70;;
6614;SDS011;3343;42.896;23.912;2023-01-01T08:45:05;36.83;;;20.37;;
6614;SDS011;3343;42.896;23.912;2023-01-01T08:47:33;44.60;;;20.33;;
6614;SDS011;3343;42.896;23.912;2023-01-01T08:50:00;28.10;;;15.40;;
6614;SDS011;3343;42.896;23.912;2023-01-01T08:52:28;20.40;;;12.37;;
6614;SDS011;3343;42.896;23.912;2023-01-01T08:54:55;18.53;;;10.13;;
6614;SDS011;3343;42.896;23.912;2023-01-01T08:57:22;15.00;;;9.33;;
6614;SDS011;3343;42.896;23.912;2023-01-01T08:59:48;13.53;;;9.13;;
6614;SDS011;3343;42.896;23.912;2023-01-01T09:02:15;16.73;;;8.00;;
6614;SDS011;3343;42.896;23.912;2023-01-01T09:04:42;10.87;;;6.53;;
6614;SDS011;3343;42.896;23.912;2023-01-01T09:07:09;17.03;;;9.37;;
6614;SDS011;3343;42.896;23.912;2023-01-01T09:09:37;19.93;;;10.73;;
6614;SDS011;3343;42.896;23.912;2023-01-01T09:12:04;18.17;;;8.93;;
6614;SDS011;3343;42.896;23.912;2023-01-01T09:14:33;17.37;;;10.20;;
6614;SDS011;3343;42.896;23.912;2023-01-01T09:17:00;19.37;;;10.20;;
6614;SDS011;3343;42.896;23.912;2023-01-01T09:19:27;17.83;;;8.93;;
6614;SDS011;3343;42.896;23.912;2023-01-01T09:21:54;17.93;;;10.67;;
6614;SDS011;3343;42.896;23.912;2023-01-01T09:24:21;18.13;;;10.23;;
6614;SDS011;3343;42.896;23.912;2023-01-01T09:26:49;25.97;;;10.83;;
6614;SDS011;3343;42.896;23.912;2023-01-01T09:29:16;22.03;;;11.73;;
6614;SDS011;3343;42.896;23.912;2023-01-01T09:31:45;24.00;;;13.17;;
6614;SDS011;3343;42.896;23.912;2023-01-01T09:34:12;25.57;;;14.50;;
6614;SDS011;3343;42.896;23.912;2023-01-01T09:36:39;24.63;;;14.87;;
6614;SDS011;3343;42.896;23.912;2023-01-01T09:39:06;27.27;;;15.30;;
6614;SDS011;3343;42.896;23.912;2023-01-01T09:41:42;27.73;;;16.17;;
6614;SDS011;3343;42.896;23.912;2023-01-01T09:44:37;31.90;;;17.07;;
6614;SDS011;3343;42.896;23.912;2023-01-01T09:47:19;29.50;;;17.17;;
6614;SDS011;3343;42.896;23.912;2023-01-01T09:49:51;28.97;;;16.70;;
6614;SDS011;3343;42.896;23.912;2023-01-01T09:52:22;33.70;;;18.60;;
6614;SDS011;3343;42.896;23.912;2023-01-01T09:54:54;33.00;;;17.70;;
6614;SDS011;3343;42.896;23.912;2023-01-01T09:57:27;34.93;;;19.37;;
6614;SDS011;3343;42.896;23.912;2023-01-01T09:59:56;31.40;;;17.43;;
6614;SDS011;3343;42.896;23.912;2023-01-01T10:02:31;32.90;;;18.57;;
6614;SDS011;3343;42.896;23.912;2023-01-01T10:05:08;31.23;;;18.07;;
6614;SDS011;3343;42.896;23.912;2023-01-01T10:07:48;34.07;;;17.43;;
6614;SDS011;3343;42.896;23.912;2023-01-01T10:10:21;32.90;;;17.87;;
6614;SDS011;3343;42.896;23.912;2023-01-01T10:13:01;26.50;;;16.53;;
6614;SDS011;3343;42.896;23.912;2023-01-01T10:15:40;27.00;;;15.77;;
6614;SDS011;3343;42.896;23.912;2023-01-01T10:18:15;26.63;;;16.00;;
6614;SDS011;3343;42.896;23.912;2023-01-01T10:20:46;29.30;;;16.00;;
6614;SDS011;3343;42.896;23.912;2023-01-01T10:23:20;29.37;;;15.93;;
6614;SDS011;3343;42.896;23.912;2023-01-01T10:25:50;27.40;;;14.83;;
6614;SDS011;3343;42.896;23.912;2023-01-01T10:28:22;31.27;;;15.33;;
6614;SDS011;3343;42.896;23.912;2023-01-01T10:30:57;23.87;;;14.03;;
6614;SDS011;3343;42.896;23.912;2023-01-01T10:33:36;26.60;;;14.60;;
6614;SDS011;3343;42.896;23.912;2023-01-01T10:36:03;25.33;;;13.37;;
6614;SDS011;3343;42.896;23.912;2023-01-01T10:38:31;26.83;;;13.93;;
6614;SDS011;3343;42.896;23.912;2023-01-01T10:41:01;26.30;;;14.40;;
6614;SDS011;3343;42.896;23.912;2023-01-01T10:43:35;24.37;;;14.57;;
6614;SDS011;3343;42.896;23.912;2023-01-01T10:46:02;23.80;;;14.47;;
6614;SDS011;3343;42.896;23.912;2023-01-01T10:48:30;25.53;;;13.87;;
6614;SDS011;3343;42.896;23.912;2023-01-01T10:50:59;22.50;;;14.07;;
6614;SDS011;3343;42.896;23.912;2023-01-01T10:53:28;22.47;;;12.43;;
6614;SDS011;3343;42.896;23.912;2023-01-01T10:56:01;24.42;;;13.68;;
6614;SDS011;3343;42.896;23.912;2023-01-01T10:58:32;21.75;;;12.88;;
6614;SDS011;3343;42.896;23.912;2023-01-01T11:01:04;24.48;;;14.13;;
6614;SDS011;3343;42.896;23.912;2023-01-01T11:03:32;24.33;;;13.43;;
6614;SDS011;3343;42.896;23.912;2023-01-01T11:06:03;22.98;;;13.88;;
6614;SDS011;3343;42.896;23.912;2023-01-01T11:08:36;23.92;;;13.10;;
6614;SDS011;3343;42.896;23.912;2023-01-01T11:11:06;21.67;;;12.93;;
6614;SDS011;3343;42.896;23.912;2023-01-01T11:13:45;18.90;;;11.68;;
6614;SDS011;3343;42.896;23.912;2023-01-01T11:16:14;20.67;;;12.38;;
6614;SDS011;3343;42.896;23.912;2023-01-01T11:18:41;23.13;;;12.02;;
6614;SDS011;3343;42.896;23.912;2023-01-01T11:21:08;20.00;;;10.25;;
6614;SDS011;3343;42.896;23.912;2023-01-01T11:23:36;14.75;;;9.77;;
6614;SDS011;3343;42.896;23.912;2023-01-01T11:26:05;15.63;;;9.52;;
6614;SDS011;3343;42.896;23.912;2023-01-01T11:28:57;17.95;;;9.45;;
6614;SDS011;3343;42.896;23.912;2023-01-01T11:31:25;14.25;;;9.07;;
6614;SDS011;3343;42.896;23.912;2023-01-01T11:33:55;15.55;;;8.05;;
6614;SDS011;3343;42.896;23.912;2023-01-01T11:36:23;12.80;;;7.85;;
6614;SDS011;3343;42.896;23.912;2023-01-01T11:39:03;12.77;;;6.72;;
6614;SDS011;3343;42.896;23.912;2023-01-01T11:41:42;10.05;;;6.13;;
6614;SDS011;3343;42.896;23.912;2023-01-01T11:44:20;7.07;;;4.22;;
6614;SDS011;3343;42.896;23.912;2023-01-01T11:46:51;11.77;;;4.90;;
6614;SDS011;3343;42.896;23.912;2023-01-01T11:49:19;7.13;;;3.90;;
6614;SDS011;3343;42.896;23.912;2023-01-01T11:51:48;6.35;;;4.35;;
6614;SDS011;3343;42.896;23.912;2023-01-01T11:54:23;8.40;;;4.97;;
6614;SDS011;3343;42.896;23.912;2023-01-01T11:56:56;9.05;;;4.28;;
6614;SDS011;3343;42.896;23.912;2023-01-01T11:59:30;3.83;;;2.58;;
6614;SDS011;3343;42.896;23.912;2023-01-01T12:02:10;1.70;;;1.60;;
6614;SDS011;3343;42.896;23.912;2023-01-01T12:04:40;1.90;;;1.40;;
6614;SDS011;3343;42.896;23.912;2023-01-01T12:07:12;2.35;;;1.80;;
6614;SDS011;3343;42.896;23.912;2023-01-01T12:09:43;2.67;;;2.00;;
6614;SDS011;3343;42.896;23.912;2023-01-01T12:12:19;5.05;;;2.72;;
6614;SDS011;3343;42.896;23.912;2023-01-01T12:14:54;10.32;;;4.97;;
6614;SDS011;3343;42.896;23.912;2023-01-01T12:17:26;8.75;;;5.28;;
6614;SDS011;3343;42.896;23.912;2023-01-01T12:19:59;8.45;;;5.60;;
6614;SDS011;3343;42.896;23.912;2023-01-01T12:22:31;9.65;;;5.88;;
6614;SDS011;3343;42.896;23.912;2023-01-01T12:24:59;11.45;;;6.85;;
6614;SDS011;3343;42.896;23.912;2023-01-01T12:27:32;11.82;;;7.00;;
6614;SDS011;3343;42.896;23.912;2023-01-01T12:30:17;10.10;;;6.72;;
6614;SDS011;3343;42.896;23.912;2023-01-01T12:32:53;9.45;;;6.00;;
6614;SDS011;3343;42.896;23.912;2023-01-01T12:35:47;14.85;;;8.90;;
6614;SDS011;3343;42.896;23.912;2023-01-01T12:38:31;16.33;;;10.77;;
6614;SDS011;3343;42.896;23.912;2023-01-01T12:41:12;18.73;;;10.23;;
6614;SDS011;3343;42.896;23.912;2023-01-01T12:43:52;17.25;;;10.15;;
6614;SDS011;3343;42.896;23.912;2023-01-01T12:46:35;19.50;;;11.18;;
6614;SDS011;3343;42.896;23.912;2023-01-01T12:49:14;18.70;;;10.35;;
6614;SDS011;3343;42.896;23.912;2023-01-01T12:52:02;16.55;;;10.50;;
6614;SDS011;3343;42.896;23.912;2023-01-01T12:54:46;17.92;;;10.38;;
6614;SDS011;3343;42.896;23.912;2023-01-01T12:57:34;19.52;;;10.25;;
6614;SDS011;3343;42.896;23.912;2023-01-01T13:00:10;15.77;;;9.63;;
6614;SDS011;3343;42.896;23.912;2023-01-01T13:02:44;19.70;;;10.25;;
6614;SDS011;3343;42.896;23.912;2023-01-01T13:05:15;15.00;;;8.80;;
6614;SDS011;3343;42.896;23.912;2023-01-01T13:07:45;17.65;;;9.38;;
6614;SDS011;3343;42.896;23.912;2023-01-01T13:10:19;17.25;;;8.13;;
6614;SDS011;3343;42.896;23.912;2023-01-01T13:12:51;15.80;;;8.05;;
6614;SDS011;3343;42.896;23.912;2023-01-01T13:18:25;5.15;;;3.20;;
6614;SDS011;3343;42.896;23.912;2023-01-01T13:20:56;2.53;;;2.00;;
6614;SDS011;3343;42.896;23.912;2023-01-01T13:23:45;2.63;;;1.90;;
6614;SDS011;3343;42.896;23.912;2023-01-01T13:26:30;1.90;;;1.50;;
6614;SDS011;3343;42.896;23.912;2023-01-01T13:32:08;2.93;;;2.13;;
6614;SDS011;3343;42.896;23.912;2023-01-01T13:34:39;3.90;;;2.60;;
6614;SDS011;3343;42.896;23.912;2023-01-01T13:40:29;3.77;;;2.33;;
6614;SDS011;3343;42.896;23.912;2023-01-01T13:46:02;2.10;;;1.90;;
6614;SDS011;3343;42.896;23.912;2023-01-01T13:57:26;6.20;;;3.47;;
6614;SDS011;3343;42.896;23.912;2023-01-01T14:00:19;11.70;;;6.77;;
6614;SDS011;3343;42.896;23.912;2023-01-01T14:02:48;2.73;;;2.17;;
6614;SDS011;3343;42.896;23.912;2023-01-01T14:05:24;9.17;;;3.63;;
6614;SDS011;3343;42.896;23.912;2023-01-01T14:07:57;5.17;;;3.17;;
6614;SDS011;3343;42.896;23.912;2023-01-01T14:10:25;36.00;;;16.37;;
6614;SDS011;3343;42.896;23.912;2023-01-01T14:12:54;40.37;;;19.30;;
6614;SDS011;3343;42.896;23.912;2023-01-01T14:15:27;36.93;;;16.07;;
6614;SDS011;3343;42.896;23.912;2023-01-01T14:17:57;12.67;;;5.47;;
6614;SDS011;3343;42.896;23.912;2023-01-01T14:20:29;4.23;;;2.90;;
6614;SDS011;3343;42.896;23.912;2023-01-01T14:23:06;24.70;;;11.67;;
6614;SDS011;3343;42.896;23.912;2023-01-01T14:25:36;28.03;;;13.07;;
6614;SDS011;3343;42.896;23.912;2023-01-01T14:28:05;21.43;;;10.53;;
6614;SDS011;3343;42.896;23.912;2023-01-01T14:30:42;10.70;;;6.47;;
6614;SDS011;3343;42.896;23.912;2023-01-01T14:33:18;6.50;;;3.17;;
6614;SDS011;3343;42.896;23.912;2023-01-01T14:35:51;26.63;;;12.97;;
6614;SDS011;3343;42.896;23.912;2023-01-01T14:38:23;9.40;;;5.20;;
6614;SDS011;3343;42.896;23.912;2023-01-01T14:40:58;5.07;;;3.07;;
6614;SDS011;3343;42.896;23.912;2023-01-01T14:43:27;10.80;;;5.00;;
6614;SDS011;3343;42.896;23.912;2023-01-01T14:45:55;10.40;;;4.80;;
6614;SDS011;3343;42.896;23.912;2023-01-01T14:48:21;10.67;;;3.97;;
6614;SDS011;3343;42.896;23.912;2023-01-01T14:50:49;7.37;;;3.80;;
6614;SDS011;3343;42.896;23.912;2023-01-01T14:53:19;13.13;;;4.53;;
6614;SDS011;3343;42.896;23.912;2023-01-01T14:55:58;15.90;;;6.53;;
6614;SDS011;3343;42.896;23.912;2023-01-01T14:58:27;10.37;;;4.57;;
6614;SDS011;3343;42.896;23.912;2023-01-01T15:03:40;6.37;;;2.97;;
6614;SDS011;3343;42.896;23.912;2023-01-01T15:06:21;3.40;;;1.90;;
6614;SDS011;3343;42.896;23.912;2023-01-01T15:08:49;3.70;;;1.90;;
6614;SDS011;3343;42.896;23.912;2023-01-01T15:11:17;6.07;;;2.57;;
6614;SDS011;3343;42.896;23.912;2023-01-01T15:13:52;7.20;;;2.70;;
6614;SDS011;3343;42.896;23.912;2023-01-01T15:16:20;3.43;;;1.80;;
6614;SDS011;3343;42.896;23.912;2023-01-01T15:18:47;5.37;;;2.40;;
6614;SDS011;3343;42.896;23.912;2023-01-01T15:21:19;3.00;;;1.90;;
6614;SDS011;3343;42.896;23.912;2023-01-01T15:23:59;2.50;;;1.90;;
6614;SDS011;3343;42.896;23.912;2023-01-01T15:26:30;2.23;;;1.90;;
6614;SDS011;3343;42.896;23.912;2023-01-01T15:29:02;4.90;;;3.20;;
6614;SDS011;3343;42.896;23.912;2023-01-01T15:31:34;1.73;;;1.30;;
6614;SDS011;3343;42.896;23.912;2023-01-01T15:34:03;1.70;;;1.40;;
6614;SDS011;3343;42.896;23.912;2023-01-01T15:36:31;2.57;;;1.90;;